Prague, Czech Republic
Current Conditions -  °F | °C
As of 12:00 AM on Friday 28 Nov 2014 (Local Time) from LKKB Reporting Station
Overcast Overcast  
Wind Chill: 26°   Ceiling: 1700
Heat Index: 34°   Visibility: 6mi
Dew Point: 30°   Wind: 10mph
Humidity: 87%   Direction: 110°ESE
Pressure: 29.97"   Gusts: NA
Location:  50.08°N, 14.43°E
Report Text: LKKB 272200Z 11009KT 9999 OVC017 01/M01 Q1015
Loading
Personal Weather Stations






























Interactive Weather Map New forecast layout! Learn more

10-Day Weather Forecast

Advertisements
Track Severe Weather on mobile